createdAt,value
2022-10-09T00:03:18.106Z,10.52
2022-10-09T00:19:14.773Z,10.51
2022-10-09T00:29:53.185Z,10.48
2022-10-09T00:36:27.356Z,10.49
2022-10-09T00:45:52.856Z,10.49
2022-10-09T00:51:11.711Z,10.46
2022-10-09T01:07:09.404Z,10.46
2022-10-09T01:12:28.808Z,10.42
2022-10-09T01:23:07.691Z,10.4
2022-10-09T01:28:26.781Z,10.37
2022-10-09T01:36:59.817Z,10.37
2022-10-09T01:39:05.176Z,10.34
2022-10-09T01:49:43.562Z,10.34
2022-10-09T01:55:02.582Z,10.32
2022-10-09T02:05:39.594Z,10.28
2022-10-09T02:21:37.298Z,10.25
2022-10-09T02:37:35.482Z,10.18
2022-10-09T02:51:56.116Z,10.14
2022-10-09T03:00:29.194Z,10.14
2022-10-09T03:18:33.070Z,10.07
2022-10-09T03:23:52.216Z,10.05
2022-10-09T03:34:31.190Z,10.01
2022-10-09T03:50:28.858Z,9.95
2022-10-09T04:01:07.617Z,9.93
2022-10-09T04:06:26.350Z,9.93
2022-10-09T04:13:00.532Z,9.91
2022-10-09T04:17:17.051Z,9.89
2022-10-09T04:34:23.213Z,9.87
2022-10-09T04:43:42.899Z,9.84
2022-10-09T04:49:02.118Z,9.83
2022-10-09T04:59:40.823Z,9.8
2022-10-09T05:05:00.442Z,9.77
2022-10-09T05:13:33.529Z,9.77
2022-10-09T05:15:38.857Z,9.76
2022-10-09T05:26:18.174Z,9.76
2022-10-09T05:31:37.044Z,9.74
2022-10-09T05:40:10.035Z,9.72
2022-10-09T05:42:14.577Z,9.74
2022-10-09T05:58:13.296Z,9.74
2022-10-09T06:08:51.559Z,9.79
2022-10-09T06:14:11.239Z,9.84
2022-10-09T06:19:30.629Z,9.85
2022-10-09T06:24:49.714Z,9.89
2022-10-09T06:33:22.756Z,9.89
2022-10-09T06:37:39.317Z,9.97
2022-10-09T06:40:48.081Z,10.01
2022-10-09T06:54:40.298Z,10.08
2022-10-09T07:03:13.492Z,10.18
2022-10-09T07:07:24.838Z,10.24
2022-10-09T07:12:43.967Z,10.31
2022-10-09T07:39:19.666Z,10.66
2022-10-09T07:47:52.724Z,10.76
2022-10-09T07:49:58.035Z,10.8
2022-10-09T08:00:35.904Z,10.98
2022-10-09T08:12:52.548Z,11.09
2022-10-09T08:17:08.878Z,11.15
2022-10-09T08:32:31.682Z,11.59
2022-10-09T08:43:10.028Z,11.98
2022-10-09T08:57:02.331Z,13.1
2022-10-09T09:01:18.926Z,13.67
2022-10-09T09:15:04.705Z,15.03
2022-10-09T09:20:24.168Z,15.4
2022-10-09T09:25:43.438Z,15.78
2022-10-09T09:41:49.881Z,16.84
2022-10-09T09:48:38.430Z,17.2
2022-10-09T09:57:38.832Z,17.82
2022-10-09T10:06:11.890Z,18.16
2022-10-09T10:08:17.397Z,18.42
2022-10-09T10:13:36.837Z,18.66
2022-10-09T10:22:09.901Z,18.87
2022-10-09T10:24:15.045Z,19.07
2022-10-09T10:34:53.140Z,19.31
2022-10-09T10:40:12.769Z,19.35
2022-10-09T10:50:51.156Z,19.59
2022-10-09T10:56:10.081Z,19.65
2022-10-09T11:06:49.092Z,19.79
2022-10-09T11:20:41.427Z,19.79
2022-10-09T11:22:46.831Z,19.69
2022-10-09T11:33:25.251Z,19.36
2022-10-09T11:38:44.774Z,19.25
2022-10-09T11:49:23.217Z,19.03
2022-10-09T11:54:42.143Z,18.95
2022-10-09T12:05:20.856Z,18.79
2022-10-09T12:15:58.784Z,18.62
2022-10-09T12:21:17.791Z,18.45
2022-10-09T12:29:50.828Z,18.29
2022-10-09T12:31:55.504Z,18.17
2022-10-09T12:37:14.269Z,18.04
2022-10-09T12:47:52.469Z,17.74
2022-10-09T12:58:28.910Z,17.78
2022-10-09T13:03:47.790Z,17.78
2022-10-09T13:14:26.275Z,17.6
2022-10-09T13:30:23.638Z,17.82
2022-10-09T13:42:17.206Z,17.92
2022-10-09T13:46:33.739Z,17.95
2022-10-09T13:57:02.191Z,17.94
2022-10-09T14:02:20.865Z,17.91
2022-10-09T14:12:58.749Z,17.85
2022-10-09T14:28:56.719Z,17.46
2022-10-09T14:34:15.444Z,17.29
2022-10-09T14:39:34.665Z,17.16
2022-10-09T14:50:12.738Z,16.87
2022-10-09T15:06:21.918Z,16.52
2022-10-09T15:16:48.017Z,16.29
2022-10-09T15:22:07.214Z,16.16
2022-10-09T15:32:46.325Z,15.98
2022-10-09T15:38:05.126Z,15.89
2022-10-09T15:48:42.897Z,15.68
2022-10-09T15:54:02.460Z,15.61
2022-10-09T16:15:19.824Z,15.24
2022-10-09T16:20:38.887Z,15.16
2022-10-09T16:31:17.316Z,14.97
2022-10-09T16:36:36.344Z,14.87
2022-10-09T16:47:14.526Z,14.71
2022-10-09T16:57:53.128Z,14.48
2022-10-09T17:03:12.316Z,14.41
2022-10-09T17:13:50.582Z,14.25
2022-10-09T17:19:09.866Z,14.19
2022-10-09T17:29:48.574Z,14.01
2022-10-09T17:40:27.240Z,13.87
2022-10-09T17:45:46.243Z,13.78
2022-10-09T17:56:25.134Z,13.64
2022-10-09T18:01:44.505Z,13.55
2022-10-09T18:07:03.588Z,13.5
2022-10-09T18:12:22.541Z,13.4
2022-10-09T18:39:00.555Z,13.06
2022-10-09T18:44:19.828Z,12.99
2022-10-09T18:54:58.130Z,12.88
2022-10-09T19:00:17.504Z,12.8
2022-10-09T19:10:55.991Z,12.72
2022-10-09T19:21:34.848Z,12.62
2022-10-09T19:26:54.084Z,12.56
2022-10-09T19:32:12.901Z,12.5
2022-10-09T19:37:32.116Z,12.45
2022-10-09T19:42:51.070Z,12.38
2022-10-09T19:53:29.233Z,12.31
2022-10-09T20:04:05.837Z,12.22
2022-10-09T20:20:04.420Z,12.2
2022-10-09T20:25:23.391Z,12.2
2022-10-09T20:36:01.439Z,12.2
2022-10-09T20:41:20.864Z,12.2
2022-10-09T20:46:40.525Z,12.22
2022-10-09T20:55:13.587Z,12.21
2022-10-09T21:02:38.031Z,12.21
2022-10-09T21:07:57.256Z,12.21
2022-10-09T21:23:55.821Z,12.21
2022-10-09T21:29:14.847Z,12.21
2022-10-09T21:45:40.433Z,12.15
2022-10-09T21:50:59.944Z,12.14
2022-10-09T21:56:19.271Z,12.15
2022-10-09T22:01:38.666Z,12.13
2022-10-09T22:12:16.962Z,12.11
2022-10-09T22:17:36.293Z,12.08
2022-10-09T22:28:15.395Z,11.97
2022-10-09T22:44:13.714Z,11.77
2022-10-09T22:54:52.289Z,11.64
2022-10-09T23:00:11.404Z,11.59
2022-10-09T23:10:49.953Z,11.49
2022-10-09T23:26:47.874Z,11.31
2022-10-09T23:37:26.581Z,11.2
2022-10-09T23:42:45.842Z,11.16
2022-10-09T23:53:24.559Z,11.06
